Flight Track Log - Related Links

Times and Time Zones

All times are in EDT time to prevent confusion due to time zone crossing. See the EJM689 flight status page for this flight to view local times or setup timezone preferences in your user account.


Time Position Orientation Groundspeed Altitude Reporting Facility
EDT Latitude Longitude Course Direction KTS MPH feet Rate Location/Type
Tue 12:12:22 AM 42.3667 -71.0000 124° Southeast 165 190 500  Level KA90
Tue 12:13:55 AM 42.3192 -70.9042 124° Southeast 214 246 4,900 2,745 Climbing Boston Center
Tue 12:14:55 AM 42.3386 -70.8025 75° East 241 277 7,500 2,455 Climbing Boston Center
Tue 12:16:07 AM 42.3981 -70.7336 41° Northeast 243 280 10,300 2,909 Climbing Boston Center
Tue 12:17:07 AM 42.4939 -70.7394 357° North 239 275 13,900 3,300 Climbing Boston Center
Tue 12:18:07 AM 42.5553 -70.8081 321° Northwest 245 282 16,900 2,650 Climbing Boston Center
Tue 12:19:07 AM 42.5983 -70.8972 303° West 260 299 19,200 1,900 Climbing Boston Center
Tue 12:20:07 AM 42.6475 -70.9978 304° West 298 343 20,700 1,500 Climbing Boston Center
Tue 12:21:07 AM 42.7031 -71.1094 304° West 331 381 22,200 1,500 Climbing Boston Center
Tue 12:22:07 AM 42.7586 -71.2269 303° West 352 405 23,700 1,500 Climbing Boston Center
Tue 12:23:07 AM 42.7914 -71.3622 288° West 370 426 25,200 1,500 Climbing Boston Center
Tue 12:24:07 AM 42.8092 -71.5089 279° West 376 433 26,700 1,450 Climbing Boston Center
Tue 12:25:07 AM 42.8164 -71.6392 274° West 384 442 28,100 1,450 Climbing Boston Center
Tue 12:26:07 AM 42.8319 -71.7833 278° West 390 449 29,600 1,350 Climbing Boston Center
Tue 12:27:07 AM 42.8453 -71.9303 277° West 390 449 30,800 1,100 Climbing Boston Center
Tue 12:28:07 AM 42.8606 -72.0833 278° West 396 456 31,800 1,000 Climbing Boston Center
Tue 12:29:07 AM 42.8753 -72.2389 277° West 408 470 32,800 1,050 Climbing Boston Center
Tue 12:30:07 AM 42.8964 -72.4117 280° West 413 475 33,900 1,100 Climbing Boston Center
Tue 12:31:07 AM 42.9089 -72.5706 276° West 418 481 35,000 1,150 Climbing Boston Center
Tue 12:32:07 AM 42.9147 -72.7208 273° West 418 481 36,200 1,150 Climbing Boston Center
Tue 12:33:07 AM 42.9269 -72.8767 276° West 418 481 37,300 900 Climbing Boston Center
Tue 12:34:07 AM 42.9428 -73.0186 279° West 416 479 38,000 350 Climbing Boston Center
Tue 12:35:07 AM 42.9567 -73.1747 277° West 422 486 38,000  Level Boston Center
Tue 12:36:07 AM 42.9681 -73.3339 276° West 422 486 38,000  Level Boston Center
Tue 12:37:07 AM 42.9750 -73.4928 273° West 422 486 38,000  Level Boston Center
Tue 12:38:07 AM 42.9900 -73.6550 277° West 422 486 38,000  Level Boston Center
Tue 12:39:07 AM 43.0028 -73.8114 276° West 422 486 38,000  Level Boston Center
Tue 12:40:07 AM 43.0133 -73.9706 275° West 422 486 38,000  Level Boston Center
Tue 12:41:07 AM 43.0256 -74.1300 276° West 422 486 38,000  Level Boston Center
Tue 12:42:07 AM 43.0378 -74.2894 276° West 422 486 38,000  Level Boston Center
Tue 12:43:07 AM 43.0497 -74.4461 276° West 422 486 38,000  Level Boston Center
Tue 12:44:07 AM 43.0614 -74.6056 276° West 427 491 38,000  Level Boston Center
Tue 12:45:07 AM 43.0708 -74.7650 275° West 427 491 38,000  Level Boston Center
Tue 12:46:07 AM 43.0819 -74.9275 275° West 427 491 38,000  Level Boston Center
Tue 12:47:07 AM 43.0908 -75.0872 274° West 427 491 38,000  Level Boston Center
Tue 12:48:07 AM 43.1014 -75.2497 275° West 427 491 38,000  Level Boston Center
Tue 12:49:07 AM 43.1119 -75.4125 275° West 427 491 38,000  Level Boston Center
Tue 12:50:07 AM 43.1244 -75.5667 276° West 427 491 38,000  Level Boston Center
Tue 12:51:07 AM 43.1344 -75.7294 275° West 427 491 38,000  Level Boston Center
Tue 12:52:07 AM 43.1425 -75.8864 274° West 422 486 38,000  Level Boston Center
Tue 12:53:59 AM 43.1583 -76.1856 274° West 417 480 38,000  Level Cleveland Center
Tue 12:54:59 AM 43.1494 -76.3400 266° West 417 480 38,000  Level Cleveland Center
Tue 12:55:59 AM 43.1364 -76.5031 264° West 424 488 38,000  Level Cleveland Center
Tue 12:56:59 AM 43.1211 -76.6606 262° West 424 488 38,000  Level Cleveland Center
Tue 12:57:59 AM 43.1061 -76.8350 263° West 429 494 38,000  Level Cleveland Center
Tue 12:58:59 AM 43.0922 -76.9950 263° West 429 494 38,000  Level Cleveland Center
Tue 12:59:59 AM 43.0764 -77.1525 262° West 429 494 38,000  Level Cleveland Center
Tue 01:00:59 AM 43.0642 -77.3122 264° West 429 494 38,000  Level Cleveland Center
Tue 01:01:59 AM 43.0478 -77.4722 262° West 429 494 38,000  Level Cleveland Center
Tue 01:02:59 AM 43.0331 -77.6264 263° West 424 488 38,000  Level Cleveland Center
Tue 01:03:59 AM 43.0183 -77.7861 263° West 424 488 38,000  Level Cleveland Center
Tue 01:04:59 AM 43.0033 -77.9431 263° West 424 488 38,000  Level Cleveland Center
Tue 01:05:59 AM 42.9964 -78.1022 267° West 424 488 38,000  Level Cleveland Center
Tue 01:06:59 AM 42.9892 -78.2558 266° West 424 488 38,000  Level Cleveland Center
Tue 01:07:59 AM 42.9839 -78.4150 267° West 424 488 38,000  Level Cleveland Center
Tue 01:08:59 AM 42.9783 -78.5711 267° West 424 488 38,000  Level Cleveland Center
Tue 01:09:59 AM 42.9747 -78.7275 268° West 424 488 38,000  Level Cleveland Center
Tue 01:10:59 AM 42.9689 -78.8836 267° West 424 488 38,000  Level Cleveland Center
Tue 01:11:59 AM 42.9625 -79.0400 267° West 419 482 38,000  Level Cleveland Center
Tue 01:12:59 AM 42.9583 -79.1961 268° West 419 482 38,000  Level Cleveland Center
Tue 01:13:59 AM 42.9497 -79.3494 266° West 419 482 38,000  Level Cleveland Center
Tue 01:15:13 AM 42.9333 -79.5167 262° West 410 472 38,000  Level Toronto Center
Tue 01:16:13 AM 42.9167 -79.6833 262° West 410 472 38,000  Level Toronto Center
Tue 01:17:13 AM 42.9167 -79.8333 270° West 410 472 38,000  Level Toronto Center
Tue 01:18:13 AM 42.9167 -79.9667 270° West 410 472 38,000  Level Toronto Center
Tue 01:19:13 AM 42.9000 -80.1333 262° West 410 472 38,000  Level Toronto Center
Tue 01:20:13 AM 42.9000 -80.2667 270° West 410 472 38,000  Level Toronto Center
Tue 01:21:13 AM 42.8833 -80.4500 263° West 410 472 38,000  Level Toronto Center
Tue 01:22:13 AM 42.8833 -80.6167 270° West 410 472 38,000  Level Toronto Center
Tue 01:23:13 AM 42.8667 -80.7500 260° West 410 472 38,000  Level Toronto Center
Tue 01:24:13 AM 42.8500 -80.9000 261° West 410 472 38,000  Level Toronto Center
Tue 01:25:23 AM 42.8633 -81.1014 275° West 417 480 38,000  Level Cleveland Center
Tue 01:26:23 AM 42.8522 -81.2544 264° West 417 480 38,000  Level Cleveland Center
Tue 01:27:23 AM 42.8447 -81.4128 266° West 417 480 38,000  Level Cleveland Center
Tue 01:28:23 AM 42.8353 -81.5656 265° West 417 480 38,000  Level Cleveland Center
Tue 01:29:23 AM 42.8233 -81.7239 264° West 417 480 38,000  Level Cleveland Center
Tue 01:30:23 AM 42.8136 -81.8569 264° West 422 486 38,000  Level Cleveland Center
Tue 01:31:23 AM 42.8036 -82.0122 265° West 422 486 38,000  Level Cleveland Center
Tue 01:32:23 AM 42.7953 -82.1647 266° West 422 486 38,000  Level Cleveland Center
Tue 01:33:23 AM 42.7869 -82.3203 266° West 422 486 38,000  Level Cleveland Center
Tue 01:34:23 AM 42.7742 -82.4642 263° West 422 486 38,000  Level Cleveland Center
Tue 01:35:23 AM 42.7628 -82.6475 265° West 422 486 38,000  Level Cleveland Center
Tue 01:36:23 AM 42.7514 -82.8000 264° West 422 486 38,000 -150 Level Cleveland Center
Tue 01:37:23 AM 42.7422 -82.9522 265° West 417 480 37,700 -650 Descending Cleveland Center
Tue 01:38:23 AM 42.7306 -83.1072 264° West 417 480 36,700 -1,000 Descending Cleveland Center
Tue 01:39:23 AM 42.7186 -83.2622 264° West 417 480 35,700 -1,000 Descending Cleveland Center
Tue 01:40:23 AM 42.7067 -83.4144 264° West 417 480 34,700 -850 Descending Cleveland Center
Tue 01:41:23 AM 42.6944 -83.5692 264° West 417 480 34,000 -500 Descending Cleveland Center
Tue 01:42:23 AM 42.6800 -83.7183 263° West 417 480 33,700 -650 Descending Cleveland Center
Tue 01:43:23 AM 42.6675 -83.8758 264° West 417 480 32,700 -1,000 Descending Cleveland Center
Tue 01:44:23 AM 42.6567 -84.0333 265° West 423 487 31,700 -1,000 Descending Cleveland Center
Tue 01:45:23 AM 42.6414 -84.1906 263° West 423 487 30,700 -850 Descending Cleveland Center
Tue 01:46:23 AM 42.6300 -84.3481 264° West 423 487 30,000 -350 Descending Cleveland Center
Tue 01:47:23 AM 42.6167 -84.4997 263° West 423 487 30,000  Level Cleveland Center
Tue 01:48:27 AM 42.6042 -84.6489 264° West 392 451 30,000  Level Chicago Center
Tue 01:49:28 AM 42.5906 -84.8022 263° West 406 467 30,000  Level Chicago Center
Tue 01:50:28 AM 42.5769 -84.9564 263° West 412 474 30,000  Level Chicago Center
Tue 01:51:28 AM 42.5622 -85.1144 263° West 420 483 30,000 -149 Level Chicago Center
Tue 01:52:29 AM 42.5478 -85.2728 263° West 422 486 29,700 -645 Descending Chicago Center
Tue 01:53:29 AM 42.5333 -85.4206 262° West 404 465 28,700 -992 Descending Chicago Center
Tue 01:54:30 AM 42.5197 -85.5625 263° West 383 441 27,700 -992 Descending Chicago Center
Tue 01:55:30 AM 42.5067 -85.6975 263° West 366 421 26,700 -1,200 Descending Chicago Center
Tue 01:56:30 AM 42.4928 -85.8369 262° West 370 426 25,300 -1,686 Descending Chicago Center
Tue 01:57:31 AM 42.4786 -85.9753 262° West 372 428 23,300 -2,033 Descending Chicago Center
Tue 01:58:31 AM 42.4650 -86.1086 262° West 360 414 21,200 -2,050 Descending Chicago Center
Tue 01:59:31 AM 42.4578 -86.2336 266° West 337 388 19,200 -1,950 Descending Chicago Center
Tue 02:00:31 AM 42.4522 -86.3525 266° West 320 368 17,300 -1,835 Descending Chicago Center
Tue 02:01:32 AM 42.4456 -86.4667 266° West 307 353 15,500 -1,736 Descending Chicago Center
Tue 02:02:32 AM 42.4397 -86.5744 266° West 292 336 13,800 -1,700 Descending Chicago Center
Tue 02:03:32 AM 42.4344 -86.6803 266° West 284 327 12,100 -1,636 Descending Chicago Center
Tue 02:04:33 AM 42.4300 -86.7842 267° West 278 320 10,500 -1,587 Descending Chicago Center
Tue 02:05:33 AM 42.4244 -86.8853 266° West 272 313 8,900 -1,600 Descending Chicago Center
Tue 02:06:33 AM 42.4194 -86.9775 266° West 253 291 7,300 -1,438 Descending Chicago Center
Tue 02:07:34 AM 42.4131 -87.0567 264° West 220 253 6,000 -645 Descending Chicago Center
Tue 02:08:34 AM 42.4064 -87.1422 264° West 226 260 6,000  Level Chicago Center
Tue 02:09:34 AM 42.4014 -87.2319 266° West 236 272 6,000  Level Chicago Center
Tue 02:10:34 AM 42.3925 -87.3219 262° West 240 276 6,000  Level Chicago Center
Tue 02:11:35 AM 42.3600 -87.4011 241° Southwest 241 277 6,000  Level Chicago Center
Tue 02:12:35 AM 42.3319 -87.4775 244° Southwest 231 266 6,000 -200 Level Chicago Center
Tue 02:13:35 AM 42.3033 -87.5594 245° Southwest 232 267 5,600 -893 Descending Chicago Center
Tue 02:14:36 AM 42.2728 -87.6394 243° Southwest 241 277 4,200 -843 Descending Chicago Center
Tue 02:15:36 AM 42.2447 -87.7175 244° Southwest 236 272 3,900 -550 Descending Chicago Center
Tue 02:16:36 AM 42.2194 -87.7881 244° Southwest 223 257 3,100 -800 Descending Chicago Center
Tue 02:17:36 AM 42.1986 -87.8564 248° West 210 242 2,300 -645 Descending Chicago Center
Tue 02:18:37 AM 42.1858 -87.9092 252° West 179 206 1,800 -496 Descending Chicago Center
Tue 02:19:37 AM 42.1531 -87.9211 195° South 154 177 1,300 -550 Descending Chicago Center
Tue 02:20:37 AM 42.1228 -87.9092 164° South 129 148 700 -600 Descending Chicago Center

Login

Don't have an account? Register now (free) for customized features, flight alerts, and more!